Aérodrome :
LOGIN :

S'inscrire | Disclaimer

   EN    FR    IT 

 










Légende :    VFR   VFR Marginal   IFR   IFR Intensif   IFR Très Intensif
Visi : 
Plafond : 
>= 8 km
>= 3000ft
5 à 8 km
1000 à 3000 ft
1500m à 5 km
500 à 1000 ft
800 à 1500m
200 à 500 ft
< 800m
< 200 ft
Symboles :   Orages  Brouillard  Fortes neiges  Fortes précipitations  Vent > 20 kt
SIGMETs :   Divers  Orages  Givrage  Turbulence  Onde Orograph.  Cendres Volcan.







- Altitude de l'aérodrome : 1910 ft
- Code IATA : RDZ
- Voir les cartes d'approche


LFCR - Rodez

DERNIER METAR :
  • 170330Z AUTO 30012KT 9999 // OVC005/// ///TCU 05/05 Q1022

METARs EXPIRÉS :
  • 170300Z AUTO 28014KT 9999 // OVC008/// ///TCU 05/04 Q1021
  • 170230Z AUTO 29013KT 9999 // OVC008/// ///TCU 05/04 Q1021
  • 170200Z AUTO 29014KT 9999 // BKN009 OVC013 05/04 Q1020
  • 170130Z AUTO 29016KT 9999 // BKN009 OVC013 05/04 Q1020
  • 170100Z AUTO 29015KT 9999 // OVC008 05/05 Q1020

TAF TAF LFCR
Valide du 17 à 00h jusqu'au 18 à 00h UTC


162300Z 1700/1724 30012KT 9999 BKN008
TEMPO 1700/1702 30018G28KT
TEMPO 1700/1705 4000 SHRA BKN004 FEW020TCU OVC030
BECMG 1704/1706 OVC003
PROB40 1706/1709 2000 BR OVC001
BECMG 1709/1711 OVC006
BECMG 1711/1713 VRB03KT
BECMG 1713/1715 BKN011
BECMG 1715/1717 FEW012
BECMG 1717/1719 0800 FG
PROB40 1719/1724 0400 VV///
Pas de NOTAMs connus pour ce terrain.
2 SIGMETs publiés pour la FIR Bordeaux (LFBB) :
 
Turbulence forte
LFBB SIGMET 3 VALID 170000/170400 LFPW
LFBB BORDEAUX FIR/UIR SEV TURB FCST SE OF LINE N4330 E00245 - N4230 E00115 SFC/FL060 STNR NC=
Turbulence forte
LFBB SIGMET 1 VALID 170400/170800 LFPW
LFBB BORDEAUX FIR/UIR SEV TURB FCST SE OF LINE N4345 E00245 - N4230 E00115 SFC/FL060 STNR NC=



MET'MAP, la Météo Aéronautique d'un coup d'oeil ! - Copyright ORBIFLY Décembre 2007 - Disclaimer

ORBIFLY MET'MAP TEAM :

Programmation & Développement : Alexandra Zaïnal
Conception & Développement : Baudouin d'Aumeries
Co-Programmation & Développement : Marc-Olivier Méhu
Soutien technique & logistique : Manuel Goepfert

Contact : metmap@orbifly.com




SOURCES & CREDITS :

   NOAA